sensor_id;sensor_type;location;lat;lon;timestamp;P1;durP1;ratioP1;P2;durP2;ratioP2
17261;SDS011;9873;52.236;21.002;2023-04-25T00:06:07;17.05;;;11.50;;
17261;SDS011;9873;52.236;21.002;2023-04-25T00:16:10;14.65;;;11.18;;
17261;SDS011;9873;52.236;21.002;2023-04-25T00:26:15;18.38;;;11.95;;
17261;SDS011;9873;52.236;21.002;2023-04-25T00:36:22;17.17;;;11.95;;
17261;SDS011;9873;52.236;21.002;2023-04-25T00:46:24;16.25;;;12.15;;
17261;SDS011;9873;52.236;21.002;2023-04-25T00:56:27;17.67;;;12.85;;
17261;SDS011;9873;52.236;21.002;2023-04-25T01:06:29;17.85;;;13.13;;
17261;SDS011;9873;52.236;21.002;2023-04-25T01:16:32;19.48;;;13.52;;
17261;SDS011;9873;52.236;21.002;2023-04-25T01:26:35;16.60;;;13.32;;
17261;SDS011;9873;52.236;21.002;2023-04-25T01:36:38;16.27;;;12.10;;
17261;SDS011;9873;52.236;21.002;2023-04-25T01:46:44;16.60;;;12.18;;
17261;SDS011;9873;52.236;21.002;2023-04-25T01:56:50;15.80;;;11.73;;
17261;SDS011;9873;52.236;21.002;2023-04-25T02:06:55;16.58;;;11.77;;
17261;SDS011;9873;52.236;21.002;2023-04-25T02:17:04;18.55;;;12.52;;
17261;SDS011;9873;52.236;21.002;2023-04-25T02:27:10;13.50;;;10.57;;
17261;SDS011;9873;52.236;21.002;2023-04-25T02:37:15;13.95;;;10.07;;
17261;SDS011;9873;52.236;21.002;2023-04-25T02:47:23;15.68;;;10.32;;
17261;SDS011;9873;52.236;21.002;2023-04-25T02:57:26;14.43;;;9.02;;
17261;SDS011;9873;52.236;21.002;2023-04-25T03:07:31;11.43;;;9.25;;
17261;SDS011;9873;52.236;21.002;2023-04-25T03:17:37;12.80;;;9.43;;
17261;SDS011;9873;52.236;21.002;2023-04-25T03:27:43;14.80;;;10.25;;
17261;SDS011;9873;52.236;21.002;2023-04-25T03:37:45;11.63;;;8.10;;
17261;SDS011;9873;52.236;21.002;2023-04-25T03:47:56;14.70;;;7.85;;
17261;SDS011;9873;52.236;21.002;2023-04-25T03:58:05;10.15;;;8.00;;
17261;SDS011;9873;52.236;21.002;2023-04-25T04:08:11;12.57;;;8.52;;
17261;SDS011;9873;52.236;21.002;2023-04-25T04:18:14;13.70;;;8.30;;
17261;SDS011;9873;52.236;21.002;2023-04-25T04:28:21;11.38;;;7.75;;
17261;SDS011;9873;52.236;21.002;2023-04-25T04:38:37;12.18;;;7.32;;
17261;SDS011;9873;52.236;21.002;2023-04-25T04:48:50;9.40;;;6.93;;
17261;SDS011;9873;52.236;21.002;2023-04-25T04:59:15;10.93;;;7.32;;
17261;SDS011;9873;52.236;21.002;2023-04-25T05:09:32;10.63;;;7.78;;
17261;SDS011;9873;52.236;21.002;2023-04-25T05:19:58;14.03;;;11.77;;
17261;SDS011;9873;52.236;21.002;2023-04-25T05:30:34;9.30;;;8.30;;
17261;SDS011;9873;52.236;21.002;2023-04-25T05:40:45;10.65;;;8.35;;
17261;SDS011;9873;52.236;21.002;2023-04-25T05:51:12;11.55;;;8.63;;
17261;SDS011;9873;52.236;21.002;2023-04-25T06:01:41;9.85;;;8.25;;
17261;SDS011;9873;52.236;21.002;2023-04-25T06:11:47;13.07;;;10.10;;
17261;SDS011;9873;52.236;21.002;2023-04-25T06:21:56;11.73;;;9.57;;
17261;SDS011;9873;52.236;21.002;2023-04-25T06:32:00;13.68;;;11.50;;
17261;SDS011;9873;52.236;21.002;2023-04-25T06:42:06;16.35;;;11.98;;
17261;SDS011;9873;52.236;21.002;2023-04-25T06:52:26;12.60;;;8.23;;
17261;SDS011;9873;52.236;21.002;2023-04-25T07:02:30;13.93;;;9.10;;
17261;SDS011;9873;52.236;21.002;2023-04-25T07:12:36;13.40;;;9.88;;
17261;SDS011;9873;52.236;21.002;2023-04-25T07:22:44;13.07;;;9.53;;
17261;SDS011;9873;52.236;21.002;2023-04-25T07:32:48;13.00;;;9.18;;
17261;SDS011;9873;52.236;21.002;2023-04-25T07:42:58;11.85;;;9.38;;
17261;SDS011;9873;52.236;21.002;2023-04-25T07:53:19;10.20;;;7.78;;
17261;SDS011;9873;52.236;21.002;2023-04-25T08:03:32;10.05;;;7.72;;
17261;SDS011;9873;52.236;21.002;2023-04-25T08:13:40;10.00;;;8.43;;
17261;SDS011;9873;52.236;21.002;2023-04-25T08:23:49;15.93;;;12.55;;
17261;SDS011;9873;52.236;21.002;2023-04-25T08:34:04;11.63;;;9.03;;
17261;SDS011;9873;52.236;21.002;2023-04-25T08:44:16;7.53;;;5.90;;
17261;SDS011;9873;52.236;21.002;2023-04-25T08:54:19;7.68;;;6.53;;
17261;SDS011;9873;52.236;21.002;2023-04-25T09:04:37;8.97;;;7.73;;
17261;SDS011;9873;52.236;21.002;2023-04-25T09:14:42;8.30;;;7.03;;
17261;SDS011;9873;52.236;21.002;2023-04-25T09:25:01;7.23;;;6.27;;
17261;SDS011;9873;52.236;21.002;2023-04-25T09:35:06;13.43;;;9.70;;
17261;SDS011;9873;52.236;21.002;2023-04-25T09:45:12;15.27;;;10.97;;
17261;SDS011;9873;52.236;21.002;2023-04-25T09:55:20;13.18;;;10.45;;
17261;SDS011;9873;52.236;21.002;2023-04-25T10:05:22;15.77;;;11.90;;
17261;SDS011;9873;52.236;21.002;2023-04-25T10:15:28;15.73;;;12.83;;
17261;SDS011;9873;52.236;21.002;2023-04-25T10:25:36;18.40;;;14.05;;
17261;SDS011;9873;52.236;21.002;2023-04-25T10:35:42;17.77;;;13.10;;
17261;SDS011;9873;52.236;21.002;2023-04-25T10:45:52;18.77;;;14.33;;
17261;SDS011;9873;52.236;21.002;2023-04-25T10:55:56;17.80;;;13.83;;
17261;SDS011;9873;52.236;21.002;2023-04-25T11:06:05;17.07;;;14.13;;
17261;SDS011;9873;52.236;21.002;2023-04-25T11:16:13;15.23;;;13.63;;
17261;SDS011;9873;52.236;21.002;2023-04-25T11:26:32;18.35;;;13.15;;
17261;SDS011;9873;52.236;21.002;2023-04-25T11:36:39;14.53;;;11.87;;
17261;SDS011;9873;52.236;21.002;2023-04-25T11:46:43;12.57;;;11.13;;
17261;SDS011;9873;52.236;21.002;2023-04-25T11:56:49;13.10;;;11.70;;
17261;SDS011;9873;52.236;21.002;2023-04-25T12:06:54;11.50;;;10.10;;
17261;SDS011;9873;52.236;21.002;2023-04-25T12:17:03;10.32;;;9.07;;
17261;SDS011;9873;52.236;21.002;2023-04-25T12:27:09;8.95;;;7.55;;
17261;SDS011;9873;52.236;21.002;2023-04-25T12:37:12;7.57;;;6.80;;
17261;SDS011;9873;52.236;21.002;2023-04-25T12:47:15;8.02;;;7.10;;
17261;SDS011;9873;52.236;21.002;2023-04-25T12:57:22;7.40;;;6.13;;
17261;SDS011;9873;52.236;21.002;2023-04-25T13:07:25;7.03;;;6.32;;
17261;SDS011;9873;52.236;21.002;2023-04-25T13:17:32;7.93;;;5.67;;
17261;SDS011;9873;52.236;21.002;2023-04-25T13:27:36;6.90;;;6.20;;
17261;SDS011;9873;52.236;21.002;2023-04-25T13:37:43;9.57;;;5.78;;
17261;SDS011;9873;52.236;21.002;2023-04-25T13:47:50;7.32;;;5.80;;
17261;SDS011;9873;52.236;21.002;2023-04-25T13:57:58;8.55;;;5.90;;
17261;SDS011;9873;52.236;21.002;2023-04-25T14:08:00;6.13;;;5.32;;
17261;SDS011;9873;52.236;21.002;2023-04-25T14:18:03;5.85;;;5.00;;
17261;SDS011;9873;52.236;21.002;2023-04-25T14:28:11;5.28;;;4.63;;
17261;SDS011;9873;52.236;21.002;2023-04-25T14:38:16;7.03;;;5.50;;
17261;SDS011;9873;52.236;21.002;2023-04-25T14:48:18;6.28;;;5.68;;
17261;SDS011;9873;52.236;21.002;2023-04-25T14:58:28;6.68;;;5.35;;
17261;SDS011;9873;52.236;21.002;2023-04-25T15:08:33;9.40;;;6.50;;
17261;SDS011;9873;52.236;21.002;2023-04-25T15:18:38;7.43;;;6.40;;
17261;SDS011;9873;52.236;21.002;2023-04-25T15:28:49;10.07;;;6.60;;
17261;SDS011;9873;52.236;21.002;2023-04-25T15:38:58;9.13;;;6.75;;
17261;SDS011;9873;52.236;21.002;2023-04-25T15:49:01;11.43;;;7.27;;
17261;SDS011;9873;52.236;21.002;2023-04-25T15:59:06;8.60;;;6.60;;
17261;SDS011;9873;52.236;21.002;2023-04-25T16:09:08;10.87;;;6.50;;
17261;SDS011;9873;52.236;21.002;2023-04-25T16:19:15;7.23;;;5.80;;
17261;SDS011;9873;52.236;21.002;2023-04-25T16:29:20;8.47;;;6.67;;
17261;SDS011;9873;52.236;21.002;2023-04-25T16:39:26;8.73;;;7.13;;
17261;SDS011;9873;52.236;21.002;2023-04-25T16:49:34;8.07;;;6.07;;
17261;SDS011;9873;52.236;21.002;2023-04-25T16:59:37;7.17;;;5.33;;
17261;SDS011;9873;52.236;21.002;2023-04-25T17:09:42;9.33;;;6.43;;
17261;SDS011;9873;52.236;21.002;2023-04-25T17:19:47;9.83;;;6.90;;
17261;SDS011;9873;52.236;21.002;2023-04-25T17:29:52;9.70;;;7.37;;
17261;SDS011;9873;52.236;21.002;2023-04-25T17:39:54;9.60;;;7.07;;
17261;SDS011;9873;52.236;21.002;2023-04-25T17:49:58;13.03;;;7.57;;
17261;SDS011;9873;52.236;21.002;2023-04-25T18:00:03;10.10;;;7.10;;
17261;SDS011;9873;52.236;21.002;2023-04-25T18:10:13;10.27;;;7.60;;
17261;SDS011;9873;52.236;21.002;2023-04-25T18:20:16;12.27;;;7.87;;
17261;SDS011;9873;52.236;21.002;2023-04-25T18:30:25;10.40;;;7.93;;
17261;SDS011;9873;52.236;21.002;2023-04-25T18:40:36;10.90;;;8.20;;
17261;SDS011;9873;52.236;21.002;2023-04-25T18:50:54;13.57;;;7.97;;
17261;SDS011;9873;52.236;21.002;2023-04-25T19:00:59;11.73;;;8.87;;
17261;SDS011;9873;52.236;21.002;2023-04-25T19:11:02;16.60;;;8.97;;
17261;SDS011;9873;52.236;21.002;2023-04-25T19:21:24;14.77;;;9.07;;
17261;SDS011;9873;52.236;21.002;2023-04-25T19:31:28;14.93;;;8.80;;
17261;SDS011;9873;52.236;21.002;2023-04-25T19:41:36;12.10;;;9.17;;
17261;SDS011;9873;52.236;21.002;2023-04-25T19:51:39;16.80;;;10.20;;
17261;SDS011;9873;52.236;21.002;2023-04-25T20:01:43;16.13;;;11.13;;
17261;SDS011;9873;52.236;21.002;2023-04-25T20:11:52;16.33;;;10.27;;
17261;SDS011;9873;52.236;21.002;2023-04-25T20:21:57;16.30;;;10.63;;
17261;SDS011;9873;52.236;21.002;2023-04-25T20:32:01;14.57;;;10.07;;
17261;SDS011;9873;52.236;21.002;2023-04-25T20:42:04;15.73;;;10.30;;
17261;SDS011;9873;52.236;21.002;2023-04-25T20:52:10;16.47;;;10.63;;
17261;SDS011;9873;52.236;21.002;2023-04-25T21:02:20;17.20;;;9.07;;
17261;SDS011;9873;52.236;21.002;2023-04-25T21:12:28;12.83;;;8.37;;
17261;SDS011;9873;52.236;21.002;2023-04-25T21:22:31;12.83;;;7.83;;
17261;SDS011;9873;52.236;21.002;2023-04-25T21:32:39;14.90;;;9.67;;
17261;SDS011;9873;52.236;21.002;2023-04-25T21:42:44;16.23;;;11.00;;
17261;SDS011;9873;52.236;21.002;2023-04-25T21:52:52;15.97;;;11.07;;
17261;SDS011;9873;52.236;21.002;2023-04-25T22:03:01;21.77;;;13.23;;
17261;SDS011;9873;52.236;21.002;2023-04-25T22:13:06;20.67;;;13.60;;
17261;SDS011;9873;52.236;21.002;2023-04-25T22:23:11;14.40;;;6.93;;
17261;SDS011;9873;52.236;21.002;2023-04-25T22:33:13;13.83;;;6.87;;
17261;SDS011;9873;52.236;21.002;2023-04-25T22:43:18;7.40;;;4.80;;
17261;SDS011;9873;52.236;21.002;2023-04-25T22:53:24;12.27;;;7.57;;
17261;SDS011;9873;52.236;21.002;2023-04-25T23:03:32;8.80;;;4.10;;
17261;SDS011;9873;52.236;21.002;2023-04-25T23:13:37;11.53;;;5.77;;
17261;SDS011;9873;52.236;21.002;2023-04-25T23:23:40;7.80;;;5.73;;
17261;SDS011;9873;52.236;21.002;2023-04-25T23:33:45;10.00;;;5.47;;
17261;SDS011;9873;52.236;21.002;2023-04-25T23:43:54;11.90;;;6.53;;
17261;SDS011;9873;52.236;21.002;2023-04-25T23:53:57;11.03;;;6.07;;
